Isabel L — WDF6141 — position and weather

sailwx.info

Track history (hours):
 
Tides and Currents Weather Stations Pressure Air Temp Water Temp Dewpoint Dewpoint Depression Visibility Wind Speed Wind Dir Waves Ship Positions

Isabel L

Owner: SO CAL SHIP SERVICES, TERMINAL ISLAND, CA. More information available from US FCC via Universal Licensing System and Coast Guard Vessel Documentation Center.

Last reported at 2017-Sep-22 01:53 UTC. Time now 2017-Sep-23 16:20 UTC.
Position N 33°36' W 118°09'.

Length 28 m; draft 2 m.

Type: Ship (hazmat cat B). MMSI: 367471080.

Date/timePositionNaut miles runAvg speedWind from/ knotsBaromVisibWave heightAir tempDewpointWater temp
2017-Sep-22 01:53N 33°36' W 118°09'615.9
2017-Sep-22 01:30N 33°42' W 118°07'3 4.8
2017-Sep-22 00:48N 33°40' W 118°04'414.6
2017-Sep-22 00:30N 33°43' W 118°07'3 1.2
2017-Sep-21 22:23N 33°41' W 118°05'3 6.0
2017-Sep-21 21:54N 33°43' W 118°07'513.5
2017-Sep-21 21:30N 33°43' W 118°14'2 4.7
2017-Sep-21 21:00N 33°44' W 118°16'0 0.0
2017-Sep-21 20:30N 33°44' W 118°16'3 5.6
2017-Sep-21 20:00N 33°43' W 118°13'8 3.9
2017-Sep-21 17:49N 33°40' W 118°04'5 9.7
2017-Sep-21 17:16N 33°36' W 118°08'0 1.2
2017-Sep-21 17:00N 33°36' W 118°08'0 0.0
2017-Sep-21 16:25N 33°36' W 118°08'610.1
2017-Sep-21 15:52N 33°40' W 118°04'2 3.7
2017-Sep-21 15:25N 33°41' W 118°05'6 5.3
2017-Sep-21 14:14N 33°36' W 118°09'311.7
2017-Sep-21 13:58N 33°39' W 118°08'3 3.1
2017-Sep-21 12:52N 33°40' W 118°04'411.3
2017-Sep-21 12:30N 33°44' W 118°07'1 2.8
2017-Sep-21 12:00N 33°43' W 118°08'712.2
2017-Sep-21 11:27N 33°44' W 118°16'0 0.8
2017-Sep-21 10:51N 33°44' W 118°16'0 0.0
2017-Sep-21 10:28N 33°44' W 118°16'0 0.0
2017-Sep-21 10:00N 33°44' W 118°16'0 0.0
2017-Sep-21 09:30N 33°44' W 118°16'0 0.0
2017-Sep-21 08:58N 33°44' W 118°16'0 0.0
2017-Sep-21 08:30N 33°44' W 118°16'0 0.0
2017-Sep-21 07:56N 33°44' W 118°16'0 0.0
2017-Sep-21 07:28N 33°44' W 118°16'0 0.0
2017-Sep-21 06:56N 33°44' W 118°16'0 0.0
2017-Sep-21 06:24N 33°44' W 118°16'0 0.0
2017-Sep-21 06:00N 33°44' W 118°16'0 0.0
2017-Sep-21 05:29N 33°44' W 118°16'0 0.0
2017-Sep-21 04:58N 33°44' W 118°16'0 0.0
2017-Sep-21 04:30N 33°44' W 118°16'0 0.0
2017-Sep-21 04:00N 33°44' W 118°16'0 0.0
2017-Sep-21 03:30N 33°44' W 118°16'0 0.4
2017-Sep-21 03:00N 33°44' W 118°16'611.8
2017-Sep-21 02:31N 33°44' W 118°09'810.4
2017-Sep-21 01:46N 33°36' W 118°08'3 9.8
2017-Sep-21 01:31N 33°39' W 118°07'5 8.5
2017-Sep-21 00:59N 33°43' W 118°07'3 5.3
2017-Sep-21 00:30N 33°41' W 118°05'2 1.1
2017-Sep-20 22:49N 33°40' W 118°04'3 6.6
2017-Sep-20 22:18N 33°42' W 118°06'1 3.4
2017-Sep-20 21:59N 33°43' W 118°07'613.0
2017-Sep-20 21:30N 33°43' W 118°15'2 3.0
2017-Sep-20 20:56N 33°44' W 118°16'0 0.0
2017-Sep-20 20:30N 33°44' W 118°16'0 0.4
2017-Sep-20 20:00N 33°44' W 118°16'0 0.5
2017-Sep-20 19:30N 33°44' W 118°16'0 0.0
2017-Sep-20 19:00N 33°44' W 118°16'510.7
2017-Sep-20 18:30N 33°44' W 118°10'3 2.5
2017-Sep-20 17:30N 33°43' W 118°07'2 4.8
2017-Sep-20 16:59N 33°41' W 118°05'4 4.3
2017-Sep-20 16:06N 33°38' W 118°06'0 0.1
2017-Sep-20 15:42N 33°38' W 118°06'3 3.3
2017-Sep-20 14:50N 33°40' W 118°04'3 3.7
2017-Sep-20 14:01N 33°40' W 118°07'3 2.1
2017-Sep-20 12:49N 33°41' W 118°05'2 1.5
2017-Sep-20 11:11N 33°43' W 118°07'0 0.0
2017-Sep-20 10:47N 33°43' W 118°07'0 0.0
2017-Sep-20 10:28N 33°43' W 118°07'0 0.0
2017-Sep-20 09:58N 33°43' W 118°07'0 0.0
2017-Sep-20 09:31N 33°43' W 118°07'0 0.0
2017-Sep-20 08:59N 33°43' W 118°07'0 0.0
2017-Sep-20 08:23N 33°43' W 118°07'0 0.0
2017-Sep-20 07:59N 33°43' W 118°07'6 1.5
2017-Sep-20 03:51N 33°43' W 118°14'2 5.2
2017-Sep-20 03:28N 33°44' W 118°16'0 0.0
2017-Sep-20 02:56N 33°44' W 118°16'0 0.0
2017-Sep-20 02:30N 33°44' W 118°16'0 0.0
2017-Sep-20 02:00N 33°44' W 118°16'3 6.3
2017-Sep-20 01:30N 33°44' W 118°12'6 5.6
2017-Sep-20 00:27N 33°42' W 118°06'3 0.7
2017-Sep-19 20:22N 33°40' W 118°04'1 3.2
2017-Sep-19 19:55N 33°41' W 118°05'3 7.0
2017-Sep-19 19:30N 33°43' W 118°07'4 6.7
2017-Sep-19 18:51N 33°40' W 118°04'513.4
2017-Sep-19 18:29N 33°36' W 118°08'2 3.5
2017-Sep-19 17:58N 33°38' W 118°08'612.5
2017-Sep-19 17:29N 33°44' W 118°06'6 5.0
2017-Sep-19 16:17N 33°38' W 118°06'2 4.4
2017-Sep-19 15:44N 33°40' W 118°08'3 2.7
2017-Sep-19 14:28N 33°36' W 118°08'5 9.6
2017-Sep-19 13:58N 33°41' W 118°07'3 0.4
2017-Sep-19 04:59N 33°43' W 118°10'511.3
2017-Sep-19 04:30N 33°44' W 118°16'0 0.0
2017-Sep-19 03:50N 33°44' W 118°16'0 0.0
2017-Sep-19 03:30N 33°44' W 118°16'1 2.4
2017-Sep-19 03:00N 33°43' W 118°16'814.2
2017-Sep-19 02:27N 33°44' W 118°07'612.4
2017-Sep-19 01:59N 33°38' W 118°08'2 4.2
2017-Sep-19 01:30N 33°40' W 118°08'3 4.9
2017-Sep-19 00:49N 33°40' W 118°04'4 9.0
2017-Sep-19 00:25N 33°43' W 118°06'1 3.5
2017-Sep-19 00:00N 33°44' W 118°07'711.1
2017-Sep-18 23:22N 33°37' W 118°08'2 5.2
2017-Sep-18 23:00N 33°39' W 118°08'4 6.3
2017-Sep-18 22:22N 33°43' W 118°06'3 6.7
2017-Sep-18 21:52N 33°40' W 118°04'0 0.2
2017-Sep-18 21:27N 33°40' W 118°04'0 0.0
2017-Sep-18 20:27N 33°40' W 118°04'0 0.0
2017-Sep-18 19:57N 33°40' W 118°04'511.1
2017-Sep-18 19:30N 33°44' W 118°06'510.1
2017-Sep-18 19:00N 33°40' W 118°04'511.1
2017-Sep-18 18:30N 33°36' W 118°08'0 0.0
2017-Sep-18 17:59N 33°36' W 118°08'0 0.0
2017-Sep-18 17:30N 33°36' W 118°08'0 0.0
2017-Sep-18 17:00N 33°36' W 118°08'0 0.0
2017-Sep-18 16:26N 33°36' W 118°08'0 0.0
2017-Sep-18 15:51N 33°36' W 118°08'1 1.3
2017-Sep-18 14:55N 33°35' W 118°08'0 0.0
2017-Sep-18 14:30N 33°35' W 118°08'3 6.1
2017-Sep-18 14:00N 33°38' W 118°08'5 7.1
2017-Sep-18 13:17N 33°43' W 118°07'413.9
2017-Sep-18 13:00N 33°40' W 118°04'4 3.6
2017-Sep-18 11:49N 33°43' W 118°07'0 0.0
2017-Sep-18 11:29N 33°43' W 118°07'0 0.0
2017-Sep-18 11:00N 33°43' W 118°07'0 0.0
2017-Sep-18 10:30N 33°43' W 118°07'0 0.0
2017-Sep-18 10:00N 33°43' W 118°07'0 0.0
2017-Sep-18 09:30N 33°43' W 118°07'0 0.0
2017-Sep-18 08:47N 33°43' W 118°07'0 0.0
2017-Sep-18 08:30N 33°43' W 118°07'0 0.0
2017-Sep-18 07:51N 33°43' W 118°07'0 0.0
2017-Sep-18 07:30N 33°43' W 118°07'0 0.0
2017-Sep-18 06:53N 33°43' W 118°07'0 0.0
2017-Sep-18 06:24N 33°43' W 118°07'0 0.0
2017-Sep-18 05:48N 33°43' W 118°07'0 0.0
2017-Sep-18 05:19N 33°43' W 118°07'0 0.0
2017-Sep-18 05:00N 33°43' W 118°07'0 0.0
2017-Sep-18 04:30N 33°43' W 118°07'0 0.0
2017-Sep-18 04:00N 33°43' W 118°07'0 0.0
2017-Sep-18 03:29N 33°43' W 118°07'0 0.0
2017-Sep-18 02:56N 33°43' W 118°07'0 0.0
2017-Sep-18 02:29N 33°43' W 118°07'0 0.0
2017-Sep-18 01:58N 33°43' W 118°07'0 0.0
2017-Sep-18 01:30N 33°43' W 118°07'2 3.6
2017-Sep-18 00:58N 33°42' W 118°05'2 3.5
2017-Sep-18 00:28N 33°43' W 118°07'3 4.7
2017-Sep-17 23:51N 33°41' W 118°04'3 7.6
2017-Sep-17 23:29N 33°38' W 118°06'3 5.4
2017-Sep-17 22:52N 33°36' W 118°09'3 8.9
2017-Sep-17 22:30N 33°38' W 118°11'714.0
2017-Sep-17 22:00N 33°44' W 118°16'0 0.8
2017-Sep-17 21:29N 33°44' W 118°16'0 0.0
2017-Sep-17 21:00N 33°44' W 118°16'4 8.8
2017-Sep-17 20:30N 33°43' W 118°11'5 8.2
2017-Sep-17 19:55N 33°40' W 118°08'4 2.2
2017-Sep-17 18:11N 33°36' W 118°08'1 2.8
2017-Sep-17 17:46N 33°37' W 118°08'414.8
2017-Sep-17 17:30N 33°41' W 118°08'3 5.9
2017-Sep-17 16:59N 33°40' W 118°04'6 9.5
2017-Sep-17 16:23N 33°36' W 118°08'0 0.0
2017-Sep-17 15:02N 33°36' W 118°08'0 0.0
2017-Sep-17 14:58N 33°36' W 118°08'1 2.2
2017-Sep-17 14:28N 33°35' W 118°08'7 9.5
2017-Sep-17 13:45N 33°42' W 118°07'3 4.4
2017-Sep-17 13:03N 33°40' W 118°04'0 5.9
2017-Sep-17 12:58N 33°40' W 118°04'4 2.0
2017-Sep-17 10:47N 33°43' W 118°07'0 0.0
2017-Sep-17 09:36N 33°43' W 118°07'0 0.0
2017-Sep-17 09:15N 33°43' W 118°07'0 0.0
2017-Sep-17 08:48N 33°43' W 118°07'0 0.0
2017-Sep-17 08:30N 33°43' W 118°07'0 0.0
2017-Sep-17 07:59N 33°43' W 118°07'0 0.0
2017-Sep-17 07:30N 33°43' W 118°07'0 0.0
2017-Sep-17 07:00N 33°43' W 118°07'0 0.0
2017-Sep-17 06:28N 33°43' W 118°07'0 0.0
2017-Sep-17 06:00N 33°43' W 118°07'0 0.0
2017-Sep-17 05:26N 33°43' W 118°07'0 0.0
2017-Sep-17 04:57N 33°43' W 118°07'0 0.0
2017-Sep-17 04:30N 33°43' W 118°07'0 0.0
2017-Sep-17 04:00N 33°43' W 118°07'0 0.0
2017-Sep-17 03:30N 33°43' W 118°07'0 0.0
2017-Sep-17 02:59N 33°43' W 118°07'0 0.0
2017-Sep-17 02:30N 33°43' W 118°07'0 0.0
2017-Sep-17 02:00N 33°43' W 118°07'0 0.3
2017-Sep-17 01:23N 33°43' W 118°07'4 8.6
2017-Sep-17 00:52N 33°40' W 118°04'410.9
2017-Sep-17 00:28N 33°43' W 118°07'8 4.9
2017-Sep-16 22:54N 33°36' W 118°09'0 0.0
2017-Sep-16 19:44N 33°36' W 118°09'311.1
2017-Sep-16 19:30N 33°38' W 118°10'713.8
2017-Sep-16 19:00N 33°43' W 118°16'1 2.2
2017-Sep-16 18:30N 33°44' W 118°16'0 0.0
2017-Sep-16 18:00N 33°44' W 118°16'0 0.0
2017-Sep-16 17:30N 33°44' W 118°16'0 0.8
2017-Sep-16 16:59N 33°44' W 118°16'5 9.3
2017-Sep-16 16:28N 33°43' W 118°10'3 5.1
2017-Sep-16 15:53N 33°43' W 118°07'4 5.5
2017-Sep-16 15:06N 33°40' W 118°04'0 0.4
2017-Sep-16 14:59N 33°40' W 118°04'6 9.3
2017-Sep-16 14:22N 33°36' W 118°09'4 6.9
2017-Sep-16 13:46N 33°40' W 118°07'412.1
2017-Sep-16 13:24N 33°44' W 118°06'511.0
2017-Sep-16 12:57N 33°40' W 118°04'511.2
2017-Sep-16 12:30N 33°44' W 118°06'1 1.7
2017-Sep-16 11:56N 33°43' W 118°07'0 0.0
2017-Sep-16 11:23N 33°43' W 118°07'0 0.0
2017-Sep-16 10:56N 33°43' W 118°07'0 0.0
2017-Sep-16 10:21N 33°43' W 118°07'0 0.0
2017-Sep-16 09:54N 33°43' W 118°07'0 0.0
2017-Sep-16 09:15N 33°43' W 118°07'0 0.0
2017-Sep-16 08:56N 33°43' W 118°07'0 0.0
2017-Sep-16 08:30N 33°43' W 118°07'0 0.0
2017-Sep-16 08:00N 33°43' W 118°07'0 0.0
2017-Sep-16 07:27N 33°43' W 118°07'0 0.0
2017-Sep-16 06:59N 33°43' W 118°07'0 0.0
2017-Sep-16 06:28N 33°43' W 118°07'0 0.0
2017-Sep-16 06:00N 33°43' W 118°07'0 0.0
2017-Sep-16 05:30N 33°43' W 118°07'0 0.0
2017-Sep-16 05:00N 33°43' W 118°07'0 0.0
2017-Sep-16 04:30N 33°43' W 118°07'0 0.0
2017-Sep-16 03:57N 33°43' W 118°07'0 0.0
2017-Sep-16 03:30N 33°43' W 118°07'0 0.0
2017-Sep-16 03:00N 33°43' W 118°07'4 5.0
2017-Sep-16 02:12N 33°39' W 118°08'413.0
2017-Sep-16 01:56N 33°36' W 118°08'613.8
2017-Sep-16 01:30N 33°41' W 118°07'3 4.6
2017-Sep-16 00:52N 33°40' W 118°04'3 9.3
2017-Sep-16 00:30N 33°42' W 118°06'1 1.9
2017-Sep-16 00:00N 33°43' W 118°07'0 0.0
2017-Sep-15 23:30N 33°43' W 118°07'0 0.0
2017-Sep-15 23:00N 33°43' W 118°07'0 0.0
2017-Sep-15 22:30N 33°43' W 118°07'0 0.0
2017-Sep-15 22:00N 33°43' W 118°07'4 4.0
2017-Sep-15 20:56N 33°40' W 118°04'612.5
2017-Sep-15 20:29N 33°36' W 118°09'6 6.6
2017-Sep-15 19:37N 33°40' W 118°04'0 0.2
2017-Sep-15 19:28N 33°40' W 118°04'510.0
2017-Sep-15 19:00N 33°44' W 118°07'5 9.4
2017-Sep-15 18:30N 33°40' W 118°04'610.8
2017-Sep-15 17:59N 33°36' W 118°09'4 8.7
2017-Sep-15 17:30N 33°39' W 118°12'612.5
2017-Sep-15 17:00N 33°44' W 118°16'0 0.1
2017-Sep-15 16:30N 33°44' W 118°16'0 0.2
2017-Sep-15 15:53N 33°44' W 118°16'0 0.0
2017-Sep-15 15:24N 33°44' W 118°16'0 0.0
2017-Sep-15 14:59N 33°44' W 118°16'510.7
2017-Sep-15 14:29N 33°40' W 118°12'5 9.6
2017-Sep-15 13:59N 33°36' W 118°08'714.3
2017-Sep-15 13:29N 33°43' W 118°07'4 7.4
2017-Sep-15 12:57N 33°40' W 118°04'4 9.4
2017-Sep-15 12:30N 33°43' W 118°07'0 0.5
2017-Sep-15 11:49N 33°43' W 118°07'0 0.1
2017-Sep-15 11:29N 33°43' W 118°07'0 0.0
2017-Sep-15 10:58N 33°43' W 118°07'0 0.0
2017-Sep-15 10:28N 33°43' W 118°07'0 0.0
2017-Sep-15 09:59N 33°43' W 118°07'0 0.0
2017-Sep-15 09:27N 33°43' W 118°07'0 0.0
2017-Sep-15 08:58N 33°43' W 118°07'0 0.0
2017-Sep-15 08:30N 33°43' W 118°07'0 0.0
2017-Sep-15 08:00N 33°43' W 118°07'0 0.0
2017-Sep-15 07:30N 33°43' W 118°07'0 0.0
2017-Sep-15 07:00N 33°43' W 118°07'0 0.0
2017-Sep-15 06:30N 33°43' W 118°07'0 0.0
2017-Sep-15 05:45N 33°43' W 118°07'0 0.0
2017-Sep-15 05:30N 33°43' W 118°07'0 0.0
2017-Sep-15 05:00N 33°43' W 118°07'1 0.4
2017-Sep-15 02:26N 33°44' W 118°06'714.8
2017-Sep-15 01:56N 33°37' W 118°08'4 8.8
2017-Sep-15 01:29N 33°41' W 118°07'2 3.4
2017-Sep-15 00:58N 33°42' W 118°06'0 0.7
2017-Sep-15 00:23N 33°42' W 118°06'2 4.1
2017-Sep-14 23:57N 33°44' W 118°07'0 0.4
2017-Sep-14 23:30N 33°44' W 118°07'4 7.1
2017-Sep-14 22:58N 33°41' W 118°04'2 5.3
2017-Sep-14 22:30N 33°38' W 118°05'3 5.1
2017-Sep-14 21:59N 33°39' W 118°08'5 0.8
2017-Sep-14 16:18N 33°43' W 118°07'3 3.7
2017-Sep-14 15:31N 33°41' W 118°05'012.6
2017-Sep-14 15:31N 33°41' W 118°05'3 5.7
2017-Sep-14 14:58N 33°43' W 118°07'7 9.5
2017-Sep-14 14:15N 33°37' W 118°08'7 3.3
2017-Sep-14 12:11N 33°43' W 118°07'0 0.1
2017-Sep-14 11:23N 33°43' W 118°07'0 0.0
2017-Sep-14 11:00N 33°43' W 118°07'0 0.0
2017-Sep-14 10:30N 33°43' W 118°07'0 0.0
2017-Sep-14 10:00N 33°43' W 118°07'0 0.0
2017-Sep-14 09:16N 33°43' W 118°07'0 0.0
2017-Sep-14 09:00N 33°43' W 118°07'0 0.0
2017-Sep-14 08:30N 33°43' W 118°07'0 0.0
2017-Sep-14 08:00N 33°43' W 118°07'0 0.0
2017-Sep-14 07:30N 33°43' W 118°07'3 1.6
2017-Sep-14 05:55N 33°43' W 118°10'513.2
2017-Sep-14 05:30N 33°43' W 118°16'1 1.5
2017-Sep-14 05:00N 33°44' W 118°16'0 0.0
2017-Sep-14 04:30N 33°44' W 118°16'0 0.0
2017-Sep-14 04:00N 33°44' W 118°16'0 0.0
2017-Sep-14 03:30N 33°44' W 118°16'2 3.7
2017-Sep-14 03:00N 33°43' W 118°15'713.2
2017-Sep-14 02:30N 33°44' W 118°07'610.7
2017-Sep-14 01:59N 33°38' W 118°08'1 3.1
2017-Sep-14 01:30N 33°40' W 118°08'3 6.1
2017-Sep-14 01:00N 33°43' W 118°06'1 1.1
2017-Sep-14 00:25N 33°42' W 118°06'2 5.0
2017-Sep-14 00:00N 33°44' W 118°06'1 1.5
2017-Sep-13 23:30N 33°43' W 118°07'6 9.1
2017-Sep-13 22:49N 33°37' W 118°06'2 7.2
2017-Sep-13 22:31N 33°36' W 118°09'713.2
2017-Sep-13 22:00N 33°42' W 118°07'4 0.9
2017-Sep-13 17:59N 33°40' W 118°04'0 0.0
2017-Sep-13 17:30N 33°40' W 118°04'0 0.0
2017-Sep-13 16:48N 33°40' W 118°04'0 0.0
2017-Sep-13 16:30N 33°40' W 118°04'0 0.0
2017-Sep-13 15:58N 33°40' W 118°04'2 4.9
2017-Sep-13 15:29N 33°42' W 118°05'2 2.9
2017-Sep-13 14:56N 33°40' W 118°04'512.5
2017-Sep-13 14:29N 33°36' W 118°08'5 9.9
2017-Sep-13 14:00N 33°41' W 118°07'2 4.8
2017-Sep-13 13:30N 33°43' W 118°07'4 5.9
2017-Sep-13 12:51N 33°40' W 118°04'412.5
2017-Sep-13 12:30N 33°44' W 118°07'1 1.3
2017-Sep-13 12:00N 33°43' W 118°07'0 0.0
2017-Sep-13 11:30N 33°43' W 118°07'0 0.0
2017-Sep-13 10:59N 33°43' W 118°07'0 0.0
2017-Sep-13 10:26N 33°43' W 118°07'0 0.0
2017-Sep-13 09:59N 33°43' W 118°07'0 0.0
2017-Sep-13 09:30N 33°43' W 118°07'0 0.0
2017-Sep-13 09:00N 33°43' W 118°07'0 0.0
2017-Sep-13 08:30N 33°43' W 118°07'0 0.0
2017-Sep-13 08:00N 33°43' W 118°07'0 0.0
2017-Sep-13 07:30N 33°43' W 118°07'0 0.0
2017-Sep-13 07:00N 33°43' W 118°07'0 0.0
2017-Sep-13 05:32N 33°43' W 118°07'0 0.2
2017-Sep-13 05:30N 33°43' W 118°07'0 0.0
2017-Sep-13 04:57N 33°43' W 118°07'510.8
2017-Sep-13 04:30N 33°43' W 118°12'3 6.2
2017-Sep-13 03:59N 33°44' W 118°16'0 0.0
2017-Sep-13 03:29N 33°44' W 118°16'0 0.0
2017-Sep-13 02:58N 33°44' W 118°16'0 0.0
2017-Sep-13 02:28N 33°44' W 118°16'1 1.5
2017-Sep-13 02:00N 33°43' W 118°16'611.4
2017-Sep-13 01:30N 33°44' W 118°09'3 5.5
2017-Sep-13 01:00N 33°43' W 118°06'2 3.0
2017-Sep-13 00:30N 33°41' W 118°05'3 5.6
2017-Sep-12 23:58N 33°44' W 118°06'0 0.0
2017-Sep-12 23:30N 33°44' W 118°06'5 9.8
2017-Sep-12 23:00N 33°40' W 118°04'0 0.5
2017-Sep-12 22:30N 33°40' W 118°04'510.3
2017-Sep-12 22:00N 33°44' W 118°06'5 9.8
2017-Sep-12 21:29N 33°40' W 118°04'0 0.0
2017-Sep-12 21:00N 33°40' W 118°04'5 9.1
2017-Sep-12 20:30N 33°43' W 118°07'5 7.1
2017-Sep-12 19:51N 33°40' W 118°04'0 0.0
2017-Sep-12 19:27N 33°40' W 118°04'0 0.0
2017-Sep-12 18:51N 33°40' W 118°04'0 0.0
2017-Sep-12 18:29N 33°40' W 118°04'4 9.3
2017-Sep-12 18:00N 33°43' W 118°07'5 9.0
2017-Sep-12 17:30N 33°39' W 118°04'510.4
2017-Sep-12 17:00N 33°36' W 118°09'0 0.1
2017-Sep-12 15:50N 33°36' W 118°08'0 0.0
2017-Sep-12 15:29N 33°36' W 118°08'0 0.0
2017-Sep-12 14:50N 33°36' W 118°08'0 0.0
2017-Sep-12 14:20N 33°36' W 118°08'0 0.7
2017-Sep-12 14:00N 33°36' W 118°08'714.6
2017-Sep-12 13:30N 33°43' W 118°07'3 6.1
2017-Sep-12 13:01N 33°41' W 118°05'3 6.7
2017-Sep-12 12:30N 33°44' W 118°07'1 1.0
2017-Sep-12 11:59N 33°43' W 118°07'0 0.0
2017-Sep-12 11:26N 33°43' W 118°07'0 0.0
2017-Sep-12 10:59N 33°43' W 118°07'0 0.0
2017-Sep-12 10:29N 33°43' W 118°07'0 0.0
2017-Sep-12 09:59N 33°43' W 118°07'0 0.0
2017-Sep-12 09:26N 33°43' W 118°07'0 0.0
2017-Sep-12 08:59N 33°43' W 118°07'0 0.0
2017-Sep-12 08:29N 33°43' W 118°07'0 0.0
2017-Sep-12 07:59N 33°43' W 118°07'0 0.0
2017-Sep-12 07:26N 33°43' W 118°07'0 0.0
2017-Sep-12 06:56N 33°43' W 118°07'0 0.0
2017-Sep-12 06:29N 33°43' W 118°07'0 0.0
2017-Sep-12 05:59N 33°43' W 118°07'0 0.0
2017-Sep-12 05:29N 33°43' W 118°07'1 2.0
2017-Sep-12 05:00N 33°43' W 118°08'7 2.3
2017-Sep-12 01:56N 33°44' W 118°16'  
Track history (hours):
 
Tides and Currents Weather Stations Pressure Air Temp Water Temp Dewpoint Dewpoint Depression Visibility Wind Speed Wind Dir Waves Ship Positions

Isabel L

Owner: SO CAL SHIP SERVICES, TERMINAL ISLAND, CA. More information available from US FCC via Universal Licensing System and Coast Guard Vessel Documentation Center.

Last reported at 2017-Sep-22 01:53 UTC. Time now 2017-Sep-23 16:20 UTC.
Position N 33°36' W 118°09'.

Length 28 m; draft 2 m.

Type: Ship (hazmat cat B). MMSI: 367471080.

Date/timePositionNaut miles runAvg speedWind from/ knotsBaromVisibWave heightAir tempDewpointWater temp
2017-Sep-22 01:53N 33°36' W 118°09'615.9
2017-Sep-22 01:30N 33°42' W 118°07'3 4.8
2017-Sep-22 00:48N 33°40' W 118°04'414.6
2017-Sep-22 00:30N 33°43' W 118°07'3 1.2
2017-Sep-21 22:23N 33°41' W 118°05'3 6.0
2017-Sep-21 21:54N 33°43' W 118°07'513.5
2017-Sep-21 21:30N 33°43' W 118°14'2 4.7
2017-Sep-21 21:00N 33°44' W 118°16'0 0.0
2017-Sep-21 20:30N 33°44' W 118°16'3 5.6
2017-Sep-21 20:00N 33°43' W 118°13'8 3.9
2017-Sep-21 17:49N 33°40' W 118°04'5 9.7
2017-Sep-21 17:16N 33°36' W 118°08'0 1.2
2017-Sep-21 17:00N 33°36' W 118°08'0 0.0
2017-Sep-21 16:25N 33°36' W 118°08'610.1
2017-Sep-21 15:52N 33°40' W 118°04'2 3.7
2017-Sep-21 15:25N 33°41' W 118°05'6 5.3
2017-Sep-21 14:14N 33°36' W 118°09'311.7
2017-Sep-21 13:58N 33°39' W 118°08'3 3.1
2017-Sep-21 12:52N 33°40' W 118°04'411.3
2017-Sep-21 12:30N 33°44' W 118°07'1 2.8
2017-Sep-21 12:00N 33°43' W 118°08'712.2
2017-Sep-21 11:27N 33°44' W 118°16'0 0.8
2017-Sep-21 10:51N 33°44' W 118°16'0 0.0
2017-Sep-21 10:28N 33°44' W 118°16'0 0.0
2017-Sep-21 10:00N 33°44' W 118°16'0 0.0
2017-Sep-21 09:30N 33°44' W 118°16'0 0.0
2017-Sep-21 08:58N 33°44' W 118°16'0 0.0
2017-Sep-21 08:30N 33°44' W 118°16'0 0.0
2017-Sep-21 07:56N 33°44' W 118°16'0 0.0
2017-Sep-21 07:28N 33°44' W 118°16'0 0.0
2017-Sep-21 06:56N 33°44' W 118°16'0 0.0
2017-Sep-21 06:24N 33°44' W 118°16'0 0.0
2017-Sep-21 06:00N 33°44' W 118°16'0 0.0
2017-Sep-21 05:29N 33°44' W 118°16'0 0.0
2017-Sep-21 04:58N 33°44' W 118°16'0 0.0
2017-Sep-21 04:30N 33°44' W 118°16'0 0.0
2017-Sep-21 04:00N 33°44' W 118°16'0 0.0
2017-Sep-21 03:30N 33°44' W 118°16'0 0.4
2017-Sep-21 03:00N 33°44' W 118°16'611.8
2017-Sep-21 02:31N 33°44' W 118°09'810.4
2017-Sep-21 01:46N 33°36' W 118°08'3 9.8
2017-Sep-21 01:31N 33°39' W 118°07'5 8.5
2017-Sep-21 00:59N 33°43' W 118°07'3 5.3
2017-Sep-21 00:30N 33°41' W 118°05'2 1.1
2017-Sep-20 22:49N 33°40' W 118°04'3 6.6
2017-Sep-20 22:18N 33°42' W 118°06'1 3.4
2017-Sep-20 21:59N 33°43' W 118°07'613.0
2017-Sep-20 21:30N 33°43' W 118°15'2 3.0
2017-Sep-20 20:56N 33°44' W 118°16'0 0.0
2017-Sep-20 20:30N 33°44' W 118°16'0 0.4
2017-Sep-20 20:00N 33°44' W 118°16'0 0.5
2017-Sep-20 19:30N 33°44' W 118°16'0 0.0
2017-Sep-20 19:00N 33°44' W 118°16'510.7
2017-Sep-20 18:30N 33°44' W 118°10'3 2.5
2017-Sep-20 17:30N 33°43' W 118°07'2 4.8
2017-Sep-20 16:59N 33°41' W 118°05'4 4.3
2017-Sep-20 16:06N 33°38' W 118°06'0 0.1
2017-Sep-20 15:42N 33°38' W 118°06'3 3.3
2017-Sep-20 14:50N 33°40' W 118°04'3 3.7
2017-Sep-20 14:01N 33°40' W 118°07'3 2.1
2017-Sep-20 12:49N 33°41' W 118°05'2 1.5
2017-Sep-20 11:11N 33°43' W 118°07'0 0.0
2017-Sep-20 10:47N 33°43' W 118°07'0 0.0
2017-Sep-20 10:28N 33°43' W 118°07'0 0.0
2017-Sep-20 09:58N 33°43' W 118°07'0 0.0
2017-Sep-20 09:31N 33°43' W 118°07'0 0.0
2017-Sep-20 08:59N 33°43' W 118°07'0 0.0
2017-Sep-20 08:23N 33°43' W 118°07'0 0.0
2017-Sep-20 07:59N 33°43' W 118°07'6 1.5
2017-Sep-20 03:51N 33°43' W 118°14'2 5.2
2017-Sep-20 03:28N 33°44' W 118°16'0 0.0
2017-Sep-20 02:56N 33°44' W 118°16'0 0.0
2017-Sep-20 02:30N 33°44' W 118°16'0 0.0
2017-Sep-20 02:00N 33°44' W 118°16'3 6.3
2017-Sep-20 01:30N 33°44' W 118°12'6 5.6
2017-Sep-20 00:27N 33°42' W 118°06'3 0.7
2017-Sep-19 20:22N 33°40' W 118°04'1 3.2
2017-Sep-19 19:55N 33°41' W 118°05'3 7.0
2017-Sep-19 19:30N 33°43' W 118°07'4 6.7
2017-Sep-19 18:51N 33°40' W 118°04'513.4
2017-Sep-19 18:29N 33°36' W 118°08'2 3.5
2017-Sep-19 17:58N 33°38' W 118°08'612.5
2017-Sep-19 17:29N 33°44' W 118°06'6 5.0
2017-Sep-19 16:17N 33°38' W 118°06'2 4.4
2017-Sep-19 15:44N 33°40' W 118°08'3 2.7
2017-Sep-19 14:28N 33°36' W 118°08'5 9.6
2017-Sep-19 13:58N 33°41' W 118°07'3 0.4
2017-Sep-19 04:59N 33°43' W 118°10'511.3
2017-Sep-19 04:30N 33°44' W 118°16'0 0.0
2017-Sep-19 03:50N 33°44' W 118°16'0 0.0
2017-Sep-19 03:30N 33°44' W 118°16'1 2.4
2017-Sep-19 03:00N 33°43' W 118°16'814.2
2017-Sep-19 02:27N 33°44' W 118°07'612.4
2017-Sep-19 01:59N 33°38' W 118°08'2 4.2
2017-Sep-19 01:30N 33°40' W 118°08'3 4.9
2017-Sep-19 00:49N 33°40' W 118°04'4 9.0
2017-Sep-19 00:25N 33°43' W 118°06'1 3.5
2017-Sep-19 00:00N 33°44' W 118°07'711.1
2017-Sep-18 23:22N 33°37' W 118°08'2 5.2
2017-Sep-18 23:00N 33°39' W 118°08'4 6.3
2017-Sep-18 22:22N 33°43' W 118°06'3 6.7
2017-Sep-18 21:52N 33°40' W 118°04'0 0.2
2017-Sep-18 21:27N 33°40' W 118°04'0 0.0
2017-Sep-18 20:27N 33°40' W 118°04'0 0.0
2017-Sep-18 19:57N 33°40' W 118°04'511.1
2017-Sep-18 19:30N 33°44' W 118°06'510.1
2017-Sep-18 19:00N 33°40' W 118°04'511.1
2017-Sep-18 18:30N 33°36' W 118°08'0 0.0
2017-Sep-18 17:59N 33°36' W 118°08'0 0.0
2017-Sep-18 17:30N 33°36' W 118°08'0 0.0
2017-Sep-18 17:00N 33°36' W 118°08'0 0.0
2017-Sep-18 16:26N 33°36' W 118°08'0 0.0
2017-Sep-18 15:51N 33°36' W 118°08'1 1.3
2017-Sep-18 14:55N 33°35' W 118°08'0 0.0
2017-Sep-18 14:30N 33°35' W 118°08'3 6.1
2017-Sep-18 14:00N 33°38' W 118°08'5 7.1
2017-Sep-18 13:17N 33°43' W 118°07'413.9
2017-Sep-18 13:00N 33°40' W 118°04'4 3.6
2017-Sep-18 11:49N 33°43' W 118°07'0 0.0
2017-Sep-18 11:29N 33°43' W 118°07'0 0.0
2017-Sep-18 11:00N 33°43' W 118°07'0 0.0
2017-Sep-18 10:30N 33°43' W 118°07'0 0.0
2017-Sep-18 10:00N 33°43' W 118°07'0 0.0
2017-Sep-18 09:30N 33°43' W 118°07'0 0.0
2017-Sep-18 08:47N 33°43' W 118°07'0 0.0
2017-Sep-18 08:30N 33°43' W 118°07'0 0.0
2017-Sep-18 07:51N 33°43' W 118°07'0 0.0
2017-Sep-18 07:30N 33°43' W 118°07'0 0.0
2017-Sep-18 06:53N 33°43' W 118°07'0 0.0
2017-Sep-18 06:24N 33°43' W 118°07'0 0.0
2017-Sep-18 05:48N 33°43' W 118°07'0 0.0
2017-Sep-18 05:19N 33°43' W 118°07'0 0.0
2017-Sep-18 05:00N 33°43' W 118°07'0 0.0
2017-Sep-18 04:30N 33°43' W 118°07'0 0.0
2017-Sep-18 04:00N 33°43' W 118°07'0 0.0
2017-Sep-18 03:29N 33°43' W 118°07'0 0.0
2017-Sep-18 02:56N 33°43' W 118°07'0 0.0
2017-Sep-18 02:29N 33°43' W 118°07'0 0.0
2017-Sep-18 01:58N 33°43' W 118°07'0 0.0
2017-Sep-18 01:30N 33°43' W 118°07'2 3.6
2017-Sep-18 00:58N 33°42' W 118°05'2 3.5
2017-Sep-18 00:28N 33°43' W 118°07'3 4.7
2017-Sep-17 23:51N 33°41' W 118°04'3 7.6
2017-Sep-17 23:29N 33°38' W 118°06'3 5.4
2017-Sep-17 22:52N 33°36' W 118°09'3 8.9
2017-Sep-17 22:30N 33°38' W 118°11'714.0
2017-Sep-17 22:00N 33°44' W 118°16'0 0.8
2017-Sep-17 21:29N 33°44' W 118°16'0 0.0
2017-Sep-17 21:00N 33°44' W 118°16'4 8.8
2017-Sep-17 20:30N 33°43' W 118°11'5 8.2
2017-Sep-17 19:55N 33°40' W 118°08'4 2.2
2017-Sep-17 18:11N 33°36' W 118°08'1 2.8
2017-Sep-17 17:46N 33°37' W 118°08'414.8
2017-Sep-17 17:30N 33°41' W 118°08'3 5.9
2017-Sep-17 16:59N 33°40' W 118°04'6 9.5
2017-Sep-17 16:23N 33°36' W 118°08'0 0.0
2017-Sep-17 15:02N 33°36' W 118°08'0 0.0
2017-Sep-17 14:58N 33°36' W 118°08'1 2.2
2017-Sep-17 14:28N 33°35' W 118°08'7 9.5
2017-Sep-17 13:45N 33°42' W 118°07'3 4.4
2017-Sep-17 13:03N 33°40' W 118°04'0 5.9
2017-Sep-17 12:58N 33°40' W 118°04'4 2.0
2017-Sep-17 10:47N 33°43' W 118°07'0 0.0
2017-Sep-17 09:36N 33°43' W 118°07'0 0.0
2017-Sep-17 09:15N 33°43' W 118°07'0 0.0
2017-Sep-17 08:48N 33°43' W 118°07'0 0.0
2017-Sep-17 08:30N 33°43' W 118°07'0 0.0
2017-Sep-17 07:59N 33°43' W 118°07'0 0.0
2017-Sep-17 07:30N 33°43' W 118°07'0 0.0
2017-Sep-17 07:00N 33°43' W 118°07'0 0.0
2017-Sep-17 06:28N 33°43' W 118°07'0 0.0
2017-Sep-17 06:00N 33°43' W 118°07'0 0.0
2017-Sep-17 05:26N 33°43' W 118°07'0 0.0
2017-Sep-17 04:57N 33°43' W 118°07'0 0.0
2017-Sep-17 04:30N 33°43' W 118°07'0 0.0
2017-Sep-17 04:00N 33°43' W 118°07'0 0.0
2017-Sep-17 03:30N 33°43' W 118°07'0 0.0
2017-Sep-17 02:59N 33°43' W 118°07'0 0.0
2017-Sep-17 02:30N 33°43' W 118°07'0 0.0
2017-Sep-17 02:00N 33°43' W 118°07'0 0.3
2017-Sep-17 01:23N 33°43' W 118°07'4 8.6
2017-Sep-17 00:52N 33°40' W 118°04'410.9
2017-Sep-17 00:28N 33°43' W 118°07'8 4.9
2017-Sep-16 22:54N 33°36' W 118°09'0 0.0
2017-Sep-16 19:44N 33°36' W 118°09'311.1
2017-Sep-16 19:30N 33°38' W 118°10'713.8
2017-Sep-16 19:00N 33°43' W 118°16'1 2.2
2017-Sep-16 18:30N 33°44' W 118°16'0 0.0
2017-Sep-16 18:00N 33°44' W 118°16'0 0.0
2017-Sep-16 17:30N 33°44' W 118°16'0 0.8
2017-Sep-16 16:59N 33°44' W 118°16'5 9.3
2017-Sep-16 16:28N 33°43' W 118°10'3 5.1
2017-Sep-16 15:53N 33°43' W 118°07'4 5.5
2017-Sep-16 15:06N 33°40' W 118°04'0 0.4
2017-Sep-16 14:59N 33°40' W 118°04'6 9.3
2017-Sep-16 14:22N 33°36' W 118°09'4 6.9
2017-Sep-16 13:46N 33°40' W 118°07'412.1
2017-Sep-16 13:24N 33°44' W 118°06'511.0
2017-Sep-16 12:57N 33°40' W 118°04'511.2
2017-Sep-16 12:30N 33°44' W 118°06'1 1.7
2017-Sep-16 11:56N 33°43' W 118°07'0 0.0
2017-Sep-16 11:23N 33°43' W 118°07'0 0.0
2017-Sep-16 10:56N 33°43' W 118°07'0 0.0
2017-Sep-16 10:21N 33°43' W 118°07'0 0.0
2017-Sep-16 09:54N 33°43' W 118°07'0 0.0
2017-Sep-16 09:15N 33°43' W 118°07'0 0.0
2017-Sep-16 08:56N 33°43' W 118°07'0 0.0
2017-Sep-16 08:30N 33°43' W 118°07'0 0.0
2017-Sep-16 08:00N 33°43' W 118°07'0 0.0
2017-Sep-16 07:27N 33°43' W 118°07'0 0.0
2017-Sep-16 06:59N 33°43' W 118°07'0 0.0
2017-Sep-16 06:28N 33°43' W 118°07'0 0.0
2017-Sep-16 06:00N 33°43' W 118°07'0 0.0
2017-Sep-16 05:30N 33°43' W 118°07'0 0.0
2017-Sep-16 05:00N 33°43' W 118°07'0 0.0
2017-Sep-16 04:30N 33°43' W 118°07'0 0.0
2017-Sep-16 03:57N 33°43' W 118°07'0 0.0
2017-Sep-16 03:30N 33°43' W 118°07'0 0.0
2017-Sep-16 03:00N 33°43' W 118°07'4 5.0
2017-Sep-16 02:12N 33°39' W 118°08'413.0
2017-Sep-16 01:56N 33°36' W 118°08'613.8
2017-Sep-16 01:30N 33°41' W 118°07'3 4.6
2017-Sep-16 00:52N 33°40' W 118°04'3 9.3
2017-Sep-16 00:30N 33°42' W 118°06'1 1.9
2017-Sep-16 00:00N 33°43' W 118°07'0 0.0
2017-Sep-15 23:30N 33°43' W 118°07'0 0.0
2017-Sep-15 23:00N 33°43' W 118°07'0 0.0
2017-Sep-15 22:30N 33°43' W 118°07'0 0.0
2017-Sep-15 22:00N 33°43' W 118°07'4 4.0
2017-Sep-15 20:56N 33°40' W 118°04'612.5
2017-Sep-15 20:29N 33°36' W 118°09'6 6.6
2017-Sep-15 19:37N 33°40' W 118°04'0 0.2
2017-Sep-15 19:28N 33°40' W 118°04'510.0
2017-Sep-15 19:00N 33°44' W 118°07'5 9.4
2017-Sep-15 18:30N 33°40' W 118°04'610.8
2017-Sep-15 17:59N 33°36' W 118°09'4 8.7
2017-Sep-15 17:30N 33°39' W 118°12'612.5
2017-Sep-15 17:00N 33°44' W 118°16'0 0.1
2017-Sep-15 16:30N 33°44' W 118°16'0 0.2
2017-Sep-15 15:53N 33°44' W 118°16'0 0.0
2017-Sep-15 15:24N 33°44' W 118°16'0 0.0
2017-Sep-15 14:59N 33°44' W 118°16'510.7
2017-Sep-15 14:29N 33°40' W 118°12'5 9.6
2017-Sep-15 13:59N 33°36' W 118°08'714.3
2017-Sep-15 13:29N 33°43' W 118°07'4 7.4
2017-Sep-15 12:57N 33°40' W 118°04'4 9.4
2017-Sep-15 12:30N 33°43' W 118°07'0 0.5
2017-Sep-15 11:49N 33°43' W 118°07'0 0.1
2017-Sep-15 11:29N 33°43' W 118°07'0 0.0
2017-Sep-15 10:58N 33°43' W 118°07'0 0.0
2017-Sep-15 10:28N 33°43' W 118°07'0 0.0
2017-Sep-15 09:59N 33°43' W 118°07'0 0.0
2017-Sep-15 09:27N 33°43' W 118°07'0 0.0
2017-Sep-15 08:58N 33°43' W 118°07'0 0.0
2017-Sep-15 08:30N 33°43' W 118°07'0 0.0
2017-Sep-15 08:00N 33°43' W 118°07'0 0.0
2017-Sep-15 07:30N 33°43' W 118°07'0 0.0
2017-Sep-15 07:00N 33°43' W 118°07'0 0.0
2017-Sep-15 06:30N 33°43' W 118°07'0 0.0
2017-Sep-15 05:45N 33°43' W 118°07'0 0.0
2017-Sep-15 05:30N 33°43' W 118°07'0 0.0
2017-Sep-15 05:00N 33°43' W 118°07'1 0.4
2017-Sep-15 02:26N 33°44' W 118°06'714.8
2017-Sep-15 01:56N 33°37' W 118°08'4 8.8
2017-Sep-15 01:29N 33°41' W 118°07'2 3.4
2017-Sep-15 00:58N 33°42' W 118°06'0 0.7
2017-Sep-15 00:23N 33°42' W 118°06'2 4.1
2017-Sep-14 23:57N 33°44' W 118°07'0 0.4
2017-Sep-14 23:30N 33°44' W 118°07'4 7.1
2017-Sep-14 22:58N 33°41' W 118°04'2 5.3
2017-Sep-14 22:30N 33°38' W 118°05'3 5.1
2017-Sep-14 21:59N 33°39' W 118°08'5 0.8
2017-Sep-14 16:18N 33°43' W 118°07'3 3.7
2017-Sep-14 15:31N 33°41' W 118°05'012.6
2017-Sep-14 15:31N 33°41' W 118°05'3 5.7
2017-Sep-14 14:58N 33°43' W 118°07'7 9.5
2017-Sep-14 14:15N 33°37' W 118°08'7 3.3
2017-Sep-14 12:11N 33°43' W 118°07'0 0.1
2017-Sep-14 11:23N 33°43' W 118°07'0 0.0
2017-Sep-14 11:00N 33°43' W 118°07'0 0.0
2017-Sep-14 10:30N 33°43' W 118°07'0 0.0
2017-Sep-14 10:00N 33°43' W 118°07'0 0.0
2017-Sep-14 09:16N 33°43' W 118°07'0 0.0
2017-Sep-14 09:00N 33°43' W 118°07'0 0.0
2017-Sep-14 08:30N 33°43' W 118°07'0 0.0
2017-Sep-14 08:00N 33°43' W 118°07'0 0.0
2017-Sep-14 07:30N 33°43' W 118°07'3 1.6
2017-Sep-14 05:55N 33°43' W 118°10'513.2
2017-Sep-14 05:30N 33°43' W 118°16'1 1.5
2017-Sep-14 05:00N 33°44' W 118°16'0 0.0
2017-Sep-14 04:30N 33°44' W 118°16'0 0.0
2017-Sep-14 04:00N 33°44' W 118°16'0 0.0
2017-Sep-14 03:30N 33°44' W 118°16'2 3.7
2017-Sep-14 03:00N 33°43' W 118°15'713.2
2017-Sep-14 02:30N 33°44' W 118°07'610.7
2017-Sep-14 01:59N 33°38' W 118°08'1 3.1
2017-Sep-14 01:30N 33°40' W 118°08'3 6.1
2017-Sep-14 01:00N 33°43' W 118°06'1 1.1
2017-Sep-14 00:25N 33°42' W 118°06'2 5.0
2017-Sep-14 00:00N 33°44' W 118°06'1 1.5
2017-Sep-13 23:30N 33°43' W 118°07'6 9.1
2017-Sep-13 22:49N 33°37' W 118°06'2 7.2
2017-Sep-13 22:31N 33°36' W 118°09'713.2
2017-Sep-13 22:00N 33°42' W 118°07'4 0.9
2017-Sep-13 17:59N 33°40' W 118°04'0 0.0
2017-Sep-13 17:30N 33°40' W 118°04'0 0.0
2017-Sep-13 16:48N 33°40' W 118°04'0 0.0
2017-Sep-13 16:30N 33°40' W 118°04'0 0.0
2017-Sep-13 15:58N 33°40' W 118°04'2 4.9
2017-Sep-13 15:29N 33°42' W 118°05'2 2.9
2017-Sep-13 14:56N 33°40' W 118°04'512.5
2017-Sep-13 14:29N 33°36' W 118°08'5 9.9
2017-Sep-13 14:00N 33°41' W 118°07'2 4.8
2017-Sep-13 13:30N 33°43' W 118°07'4 5.9
2017-Sep-13 12:51N 33°40' W 118°04'412.5
2017-Sep-13 12:30N 33°44' W 118°07'1 1.3
2017-Sep-13 12:00N 33°43' W 118°07'0 0.0
2017-Sep-13 11:30N 33°43' W 118°07'0 0.0
2017-Sep-13 10:59N 33°43' W 118°07'0 0.0
2017-Sep-13 10:26N 33°43' W 118°07'0 0.0
2017-Sep-13 09:59N 33°43' W 118°07'0 0.0
2017-Sep-13 09:30N 33°43' W 118°07'0 0.0
2017-Sep-13 09:00N 33°43' W 118°07'0 0.0
2017-Sep-13 08:30N 33°43' W 118°07'0 0.0
2017-Sep-13 08:00N 33°43' W 118°07'0 0.0
2017-Sep-13 07:30N 33°43' W 118°07'0 0.0
2017-Sep-13 07:00N 33°43' W 118°07'0 0.0
2017-Sep-13 05:32N 33°43' W 118°07'0 0.2
2017-Sep-13 05:30N 33°43' W 118°07'0 0.0
2017-Sep-13 04:57N 33°43' W 118°07'510.8
2017-Sep-13 04:30N 33°43' W 118°12'3 6.2
2017-Sep-13 03:59N 33°44' W 118°16'0 0.0
2017-Sep-13 03:29N 33°44' W 118°16'0 0.0
2017-Sep-13 02:58N 33°44' W 118°16'0 0.0
2017-Sep-13 02:28N 33°44' W 118°16'1 1.5
2017-Sep-13 02:00N 33°43' W 118°16'611.4
2017-Sep-13 01:30N 33°44' W 118°09'3 5.5
2017-Sep-13 01:00N 33°43' W 118°06'2 3.0
2017-Sep-13 00:30N 33°41' W 118°05'3 5.6
2017-Sep-12 23:58N 33°44' W 118°06'0 0.0
2017-Sep-12 23:30N 33°44' W 118°06'5 9.8
2017-Sep-12 23:00N 33°40' W 118°04'0 0.5
2017-Sep-12 22:30N 33°40' W 118°04'510.3
2017-Sep-12 22:00N 33°44' W 118°06'5 9.8
2017-Sep-12 21:29N 33°40' W 118°04'0 0.0
2017-Sep-12 21:00N 33°40' W 118°04'5 9.1
2017-Sep-12 20:30N 33°43' W 118°07'5 7.1
2017-Sep-12 19:51N 33°40' W 118°04'0 0.0
2017-Sep-12 19:27N 33°40' W 118°04'0 0.0
2017-Sep-12 18:51N 33°40' W 118°04'0 0.0
2017-Sep-12 18:29N 33°40' W 118°04'4 9.3
2017-Sep-12 18:00N 33°43' W 118°07'5 9.0
2017-Sep-12 17:30N 33°39' W 118°04'510.4
2017-Sep-12 17:00N 33°36' W 118°09'0 0.1
2017-Sep-12 15:50N 33°36' W 118°08'0 0.0
2017-Sep-12 15:29N 33°36' W 118°08'0 0.0
2017-Sep-12 14:50N 33°36' W 118°08'0 0.0
2017-Sep-12 14:20N 33°36' W 118°08'0 0.7
2017-Sep-12 14:00N 33°36' W 118°08'714.6
2017-Sep-12 13:30N 33°43' W 118°07'3 6.1
2017-Sep-12 13:01N 33°41' W 118°05'3 6.7
2017-Sep-12 12:30N 33°44' W 118°07'1 1.0
2017-Sep-12 11:59N 33°43' W 118°07'0 0.0
2017-Sep-12 11:26N 33°43' W 118°07'0 0.0
2017-Sep-12 10:59N 33°43' W 118°07'0 0.0
2017-Sep-12 10:29N 33°43' W 118°07'0 0.0
2017-Sep-12 09:59N 33°43' W 118°07'0 0.0
2017-Sep-12 09:26N 33°43' W 118°07'0 0.0
2017-Sep-12 08:59N 33°43' W 118°07'0 0.0
2017-Sep-12 08:29N 33°43' W 118°07'0 0.0
2017-Sep-12 07:59N 33°43' W 118°07'0 0.0
2017-Sep-12 07:26N 33°43' W 118°07'0 0.0
2017-Sep-12 06:56N 33°43' W 118°07'0 0.0
2017-Sep-12 06:29N 33°43' W 118°07'0 0.0
2017-Sep-12 05:59N 33°43' W 118°07'0 0.0
2017-Sep-12 05:29N 33°43' W 118°07'1 2.0
2017-Sep-12 05:00N 33°43' W 118°08'7 2.3
2017-Sep-12 01:56N 33°44' W 118°16'  

Dump ship's entire track history